Time;durP1;ratioP1;P1;durP2;ratioP2;P2;SDS_P1;SDS_P2;PMS_P1;PMS_P2;Temp;Humidity;BMP_temperature;BMP_pressure;BME280_temperature;BME280_humidity;BME280_pressure;Samples;Min_cycle;Max_cycle;Signal;HPM_P1;HPM_P2
2022/07/09 00:33:06;;;;;;;13.05;7.60;;;16.10;99.90;;;;;;4910554;29;20084;-84
2022/07/09 00:35:37;;;;;;;14.18;7.20;;;16.20;99.90;;;;;;4996880;28;20497;-85
2022/07/09 00:38:13;;;;;;;17.58;7.43;;;16.20;99.90;;;;;;4984154;28;20058;-85
2022/07/09 00:40:52;;;;;;;14.35;7.65;;;16.20;99.90;;;;;;5004686;28;20046;-85
2022/07/09 00:43:50;;;;;;;13.07;5.55;;;16.20;99.90;;;;;;5003660;28;20050;-85
2022/07/09 00:46:23;;;;;;;12.30;5.90;;;16.20;99.90;;;;;;4990385;28;20090;-86
2022/07/09 00:49:12;;;;;;;12.13;6.22;;;16.20;99.90;;;;;;5003986;28;20500;-86
2022/07/09 00:51:38;;;;;;;12.70;6.35;;;16.20;99.90;;;;;;4997756;28;20121;-87
2022/07/09 00:54:09;;;;;;;13.38;7.85;;;16.10;99.90;;;;;;5007065;28;20030;-86
2022/07/09 00:56:35;;;;;;;13.45;5.97;;;16.20;99.90;;;;;;5005865;28;20101;-86
2022/07/09 00:59:04;;;;;;;13.38;7.03;;;16.20;99.90;;;;;;5007311;28;20041;-86
2022/07/09 01:02:02;;;;;;;15.75;6.53;;;16.20;99.90;;;;;;5004988;28;20526;-87
2022/07/09 01:04:39;;;;;;;9.65;5.75;;;16.10;99.90;;;;;;5004500;28;20047;-86
2022/07/09 01:07:28;;;;;;;11.60;6.13;;;16.20;99.90;;;;;;4988686;28;20058;-86
2022/07/09 01:10:28;;;;;;;13.25;6.50;;;16.10;99.90;;;;;;5022359;28;20030;-86
2022/07/09 01:13:07;;;;;;;13.07;5.72;;;16.10;99.90;;;;;;4992011;28;20072;-86
2022/07/09 01:15:42;;;;;;;11.75;6.35;;;16.10;99.90;;;;;;4992662;28;20053;-86
2022/07/09 01:18:28;;;;;;;11.80;6.22;;;16.00;99.90;;;;;;5005124;28;20396;-86
2022/07/09 01:21:05;;;;;;;15.02;6.65;;;16.00;99.90;;;;;;5006985;28;20077;-87
2022/07/09 01:23:34;;;;;;;10.35;7.03;;;16.10;99.90;;;;;;5007670;28;20046;-87
2022/07/09 01:26:02;;;;;;;10.35;5.85;;;16.00;99.90;;;;;;4993281;28;20104;-86
2022/07/09 01:28:31;;;;;;;12.18;6.05;;;16.10;99.90;;;;;;5005212;28;20404;-86
2022/07/09 01:31:13;;;;;;;12.38;6.20;;;16.10;99.90;;;;;;4990454;28;20079;-87
2022/07/09 01:34:02;;;;;;;15.15;5.80;;;16.10;99.90;;;;;;4996814;28;20166;-87
2022/07/09 01:36:27;;;;;;;11.43;5.22;;;16.10;99.90;;;;;;5004246;28;20046;-87
2022/07/09 01:38:53;;;;;;;14.32;6.43;;;16.10;99.90;;;;;;4991456;28;20515;-86
2022/07/09 01:41:22;;;;;;;13.35;6.20;;;16.10;99.90;;;;;;5011278;28;20046;-87
2022/07/09 01:43:48;;;;;;;9.90;5.85;;;16.00;99.90;;;;;;5017335;28;20045;-86
2022/07/09 01:46:13;;;;;;;13.50;6.15;;;16.10;99.90;;;;;;5015465;28;20116;-86
2022/07/09 01:48:42;;;;;;;14.40;6.03;;;16.00;99.90;;;;;;5011252;28;20509;-86
2022/07/09 01:51:09;;;;;;;12.40;6.32;;;16.00;99.90;;;;;;5010834;28;20042;-86
2022/07/09 01:53:35;;;;;;;9.77;5.00;;;16.00;99.90;;;;;;4997259;28;20073;-86
2022/07/09 01:56:08;;;;;;;9.98;5.40;;;16.00;99.90;;;;;;4986962;28;20038;-85
2022/07/09 01:58:37;;;;;;;11.88;5.72;;;16.00;99.90;;;;;;5005626;28;20065;-85
2022/07/09 02:01:06;;;;;;;15.48;5.30;;;16.10;99.90;;;;;;5005846;28;20125;-85
2022/07/09 02:03:32;;;;;;;11.40;6.28;;;16.00;99.90;;;;;;4988852;28;20069;-86
2022/07/09 02:06:03;;;;;;;14.02;7.07;;;16.00;99.90;;;;;;5007073;28;20068;-85
2022/07/09 02:08:29;;;;;;;9.95;5.00;;;16.00;99.90;;;;;;4990654;28;20053;-85
2022/07/09 02:10:54;;;;;;;13.13;6.32;;;16.00;99.90;;;;;;4988842;28;20492;-85
2022/07/09 02:13:20;;;;;;;19.45;7.18;;;16.00;99.90;;;;;;5005888;28;20128;-85
2022/07/09 02:15:46;;;;;;;14.27;7.45;;;16.10;99.90;;;;;;4990155;28;20025;-86
2022/07/09 02:18:12;;;;;;;13.18;7.03;;;16.10;99.90;;;;;;5004197;28;20041;-84
2022/07/09 02:20:38;;;;;;;10.55;6.70;;;16.10;99.90;;;;;;4988544;28;20172;-84
2022/07/09 02:23:03;;;;;;;14.10;7.15;;;16.10;99.90;;;;;;4981202;28;20105;-85
2022/07/09 02:25:29;;;;;;;9.48;6.45;;;16.00;99.90;;;;;;5006943;28;20049;-85
2022/07/09 02:27:55;;;;;;;16.30;7.35;;;16.10;99.90;;;;;;4987621;28;20045;-84
2022/07/09 02:30:20;;;;;;;14.82;7.70;;;16.00;99.90;;;;;;5000880;28;20040;-85
2022/07/09 02:32:46;;;;;;;13.35;7.13;;;16.00;99.90;;;;;;5006841;28;20081;-86
2022/07/09 02:35:12;;;;;;;16.10;6.72;;;16.00;99.90;;;;;;5004347;28;20030;-84
2022/07/09 02:37:37;;;;;;;11.98;7.50;;;15.90;99.90;;;;;;5006779;28;20427;-85
2022/07/09 02:40:04;;;;;;;13.30;6.75;;;15.90;99.90;;;;;;4989476;28;20381;-85
2022/07/09 02:42:30;;;;;;;16.67;8.07;;;15.90;99.90;;;;;;4990351;28;20108;-85
2022/07/09 02:44:55;;;;;;;13.93;8.20;;;15.90;99.90;;;;;;5006476;28;20131;-84
2022/07/09 02:47:21;;;;;;;17.23;9.15;;;15.90;99.90;;;;;;5005193;28;20034;-86
2022/07/09 02:49:46;;;;;;;15.57;8.07;;;15.90;99.90;;;;;;5002244;28;20100;-84
2022/07/09 02:52:12;;;;;;;14.75;8.60;;;15.90;99.90;;;;;;4989025;28;20104;-84
2022/07/09 02:54:37;;;;;;;21.50;9.68;;;16.00;99.90;;;;;;5005121;28;20092;-85
2022/07/09 02:57:03;;;;;;;13.30;7.88;;;16.00;99.90;;;;;;5004654;28;20076;-84
2022/07/09 02:59:29;;;;;;;16.40;8.45;;;16.00;99.90;;;;;;4989827;28;20297;-85
2022/07/09 03:01:54;;;;;;;15.65;6.63;;;16.00;99.90;;;;;;4988781;28;20053;-84
2022/07/09 03:04:20;;;;;;;18.25;8.32;;;16.00;99.90;;;;;;5005070;28;20396;-85
2022/07/09 03:06:46;;;;;;;14.32;8.90;;;16.00;99.90;;;;;;5004180;28;20404;-86
2022/07/09 03:09:13;;;;;;;16.00;7.45;;;16.10;99.90;;;;;;4989857;28;20542;-86
2022/07/09 03:11:38;;;;;;;12.48;6.95;;;16.10;99.90;;;;;;5006027;28;20041;-86
2022/07/09 03:14:04;;;;;;;13.82;8.43;;;16.10;99.90;;;;;;5005496;28;20160;-85
2022/07/09 03:16:29;;;;;;;14.38;7.07;;;16.10;99.90;;;;;;5004773;28;20030;-86
2022/07/09 03:18:55;;;;;;;14.77;7.38;;;16.10;99.90;;;;;;5005015;28;20041;-86
2022/07/09 03:21:20;;;;;;;13.20;8.35;;;16.10;99.90;;;;;;4988229;28;20042;-85
2022/07/09 03:23:46;;;;;;;13.85;8.02;;;16.10;99.90;;;;;;5006535;28;20041;-85
2022/07/09 03:26:12;;;;;;;17.08;8.00;;;16.10;99.90;;;;;;5002332;28;20048;-85
2022/07/09 03:28:38;;;;;;;19.33;9.85;;;16.20;99.90;;;;;;5005385;28;20123;-85
2022/07/09 03:31:04;;;;;;;15.02;8.60;;;16.10;99.90;;;;;;5003339;28;21453;-84
2022/07/09 03:33:29;;;;;;;13.90;6.85;;;16.10;99.90;;;;;;4985444;28;20042;-85
2022/07/09 03:35:55;;;;;;;16.88;11.43;;;16.00;99.90;;;;;;5002870;28;20384;-85
2022/07/09 03:38:22;;;;;;;16.67;7.68;;;16.00;99.90;;;;;;4998221;28;20038;-85
2022/07/09 03:40:47;;;;;;;15.13;8.32;;;15.90;99.90;;;;;;5004996;28;20082;-85
2022/07/09 03:43:13;;;;;;;16.17;8.95;;;15.90;99.90;;;;;;4991762;28;20042;-85
2022/07/09 03:45:39;;;;;;;14.32;9.80;;;15.90;99.90;;;;;;5005690;28;20080;-84
2022/07/09 03:48:05;;;;;;;20.58;9.75;;;15.90;99.90;;;;;;5006401;28;20073;-85
2022/07/09 03:50:31;;;;;;;12.20;7.53;;;15.80;99.90;;;;;;4980684;28;20066;-86
2022/07/09 03:52:57;;;;;;;14.68;8.32;;;15.80;99.90;;;;;;5005048;28;20447;-86
2022/07/09 03:55:23;;;;;;;18.20;9.18;;;15.90;99.90;;;;;;5003402;28;20136;-86
2022/07/09 03:57:48;;;;;;;15.20;9.23;;;15.90;99.90;;;;;;5003419;28;20456;-86
2022/07/09 04:00:14;;;;;;;14.70;7.43;;;15.90;99.90;;;;;;4986664;28;20117;-86
2022/07/09 04:02:40;;;;;;;10.10;6.80;;;15.90;99.90;;;;;;5004488;28;20065;-85
2022/07/09 04:05:07;;;;;;;17.50;6.95;;;15.90;99.90;;;;;;5006102;28;20030;-85
2022/07/09 04:07:33;;;;;;;12.77;6.55;;;16.00;99.90;;;;;;5003226;28;20500;-86
2022/07/09 04:09:58;;;;;;;12.55;6.10;;;16.00;99.90;;;;;;4989108;28;20117;-85
2022/07/09 04:12:24;;;;;;;12.80;5.53;;;16.00;99.90;;;;;;5001697;28;20038;-85
2022/07/09 04:14:49;;;;;;;12.32;5.57;;;16.10;99.90;;;;;;4986564;28;20038;-85
2022/07/09 04:17:15;;;;;;;10.35;5.53;;;16.00;99.90;;;;;;5003097;28;20207;-85
2022/07/09 04:19:40;;;;;;;9.85;5.82;;;16.00;99.90;;;;;;4989007;28;20044;-85
2022/07/09 04:22:06;;;;;;;11.55;6.28;;;16.10;99.90;;;;;;5002453;28;20054;-85
2022/07/09 04:24:31;;;;;;;11.43;5.63;;;16.10;99.90;;;;;;5004459;28;20423;-84
2022/07/09 04:26:57;;;;;;;10.63;6.97;;;16.10;99.90;;;;;;5005473;28;20520;-85
2022/07/09 04:29:22;;;;;;;12.65;5.93;;;16.10;99.90;;;;;;5007892;28;20053;-85
2022/07/09 04:31:48;;;;;;;12.02;6.05;;;16.10;99.90;;;;;;5009467;28;20037;-86
2022/07/09 04:34:13;;;;;;;12.98;6.20;;;16.10;99.90;;;;;;4996603;28;20061;-84
2022/07/09 04:36:39;;;;;;;11.70;5.95;;;16.20;99.90;;;;;;5008491;28;20037;-85
2022/07/09 04:39:05;;;;;;;12.07;6.32;;;16.20;99.90;;;;;;5008627;28;20038;-85
2022/07/09 04:41:31;;;;;;;10.45;6.78;;;16.20;99.90;;;;;;4985615;28;20049;-85
2022/07/09 04:43:56;;;;;;;12.07;5.35;;;16.20;99.90;;;;;;5008639;28;20441;-85
2022/07/09 04:46:22;;;;;;;11.88;5.70;;;16.20;99.90;;;;;;5005552;28;20045;-84
2022/07/09 04:48:50;;;;;;;11.30;5.85;;;16.30;99.90;;;;;;5008583;28;20053;-86
2022/07/09 04:51:16;;;;;;;12.50;6.43;;;16.30;99.90;;;;;;5008217;28;20121;-86
2022/07/09 04:53:42;;;;;;;13.27;6.38;;;16.30;99.90;;;;;;5007676;28;20041;-86
2022/07/09 04:56:07;;;;;;;9.70;4.75;;;16.30;99.90;;;;;;5008922;28;20049;-85
2022/07/09 04:58:33;;;;;;;8.73;5.43;;;16.30;99.90;;;;;;5006624;28;20057;-85
2022/07/09 05:00:59;;;;;;;9.23;4.53;;;16.40;99.90;;;;;;4987148;28;20404;-85
2022/07/09 05:03:25;;;;;;;6.47;4.28;;;16.40;99.90;;;;;;5007446;28;20125;-85
2022/07/09 05:05:53;;;;;;;7.47;4.50;;;16.40;99.90;;;;;;5026501;28;20050;-85
2022/07/09 05:08:19;;;;;;;9.65;4.63;;;16.40;99.90;;;;;;5006883;28;20767;-85
2022/07/09 05:10:45;;;;;;;7.32;3.83;;;16.50;99.90;;;;;;5008384;28;20034;-85
2022/07/09 05:13:10;;;;;;;7.95;4.13;;;16.50;99.90;;;;;;5005126;28;20046;-84
2022/07/09 05:15:36;;;;;;;13.43;4.93;;;16.50;99.90;;;;;;4995266;28;20034;-85
2022/07/09 05:18:02;;;;;;;7.38;4.60;;;16.60;99.90;;;;;;5009965;28;20037;-85
2022/07/09 05:20:27;;;;;;;11.57;5.25;;;16.60;99.90;;;;;;5005511;28;20657;-85
2022/07/09 05:22:53;;;;;;;9.85;4.68;;;16.70;99.90;;;;;;5010048;28;20068;-85
2022/07/09 05:25:19;;;;;;;8.02;3.72;;;16.80;99.90;;;;;;5009468;28;20038;-85
2022/07/09 05:27:46;;;;;;;8.90;4.45;;;16.80;99.90;;;;;;5009529;28;20092;-84
2022/07/09 05:30:14;;;;;;;11.43;4.63;;;16.80;99.90;;;;;;5000123;28;20457;-84
2022/07/09 05:32:41;;;;;;;11.07;5.00;;;16.80;99.90;;;;;;5009706;28;20038;-85
2022/07/09 05:35:07;;;;;;;11.50;4.93;;;16.90;99.90;;;;;;4991569;28;20130;-84
2022/07/09 05:37:32;;;;;;;9.68;4.40;;;17.00;99.90;;;;;;5016204;28;20042;-85
2022/07/09 05:40:00;;;;;;;12.50;4.90;;;17.10;99.90;;;;;;4989655;28;20042;-84
2022/07/09 05:42:25;;;;;;;8.50;4.05;;;17.20;99.90;;;;;;5006538;28;20075;-84
2022/07/09 05:44:51;;;;;;;7.20;3.97;;;17.30;99.90;;;;;;5007075;28;20088;-86
2022/07/09 05:47:17;;;;;;;8.90;3.72;;;17.50;99.90;;;;;;4992201;28;20034;-85
2022/07/09 05:49:42;;;;;;;8.07;3.78;;;17.60;99.90;;;;;;5012989;28;20038;-85
2022/07/09 05:52:08;;;;;;;6.88;4.13;;;17.70;99.90;;;;;;5014316;28;20041;-84
2022/07/09 05:54:34;;;;;;;5.20;3.47;;;17.80;99.90;;;;;;5010090;28;20030;-84
2022/07/09 05:56:59;;;;;;;7.45;3.50;;;17.70;99.90;;;;;;5000185;28;20438;-85
2022/07/09 06:00:27;;;;;;;7.70;3.28;;;17.70;99.90;;;;;;5036632;22;20033;-84
2022/07/09 06:06:57;;;;;;;4.00;2.40;;;17.60;99.90;;;;;;4839110;29;20052;-84
2022/07/09 06:30:01;;;;;;;5.88;2.42;;;18.20;99.90;;;;;;4897275;28;20056;-83
2022/07/09 06:32:27;;;;;;;2.75;1.73;;;18.20;99.90;;;;;;4955309;28;20043;-85
2022/07/09 07:07:41;;;;;;;3.53;1.98;;;18.70;99.90;;;;;;4994964;28;20102;-84
2022/07/09 07:10:31;;;;;;;6.97;3.20;;;18.70;99.90;;;;;;5075190;22;20052;-83
2022/07/09 07:13:41;;;;;;;6.97;3.28;;;18.60;99.90;;;;;;5028466;28;20143;-83
2022/07/09 07:16:19;;;;;;;4.97;1.60;;;18.50;99.90;;;;;;5031165;28;20048;-83
2022/07/09 07:19:26;;;;;;;74.80;51.55;;;18.50;99.90;;;;;;5029836;28;20045;-82
2022/07/09 07:22:08;;;;;;;9.30;4.30;;;18.70;99.90;;;;;;5033641;28;20041;-82
2022/07/09 07:24:34;;;;;;;5.20;1.98;;;18.70;99.90;;;;;;5016612;28;20041;-75
2022/07/09 07:27:00;;;;;;;4.53;2.15;;;18.70;99.90;;;;;;5036222;28;20037;-83
2022/07/09 07:29:26;;;;;;;5.47;1.95;;;18.70;99.90;;;;;;5045441;28;20104;-82
2022/07/09 07:31:51;;;;;;;5.57;1.95;;;18.70;99.90;;;;;;5043474;28;20136;-83
2022/07/09 07:34:19;;;;;;;4.00;1.70;;;18.60;99.90;;;;;;5044595;28;20470;-82
2022/07/09 07:36:45;;;;;;;5.18;1.92;;;18.70;99.90;;;;;;5036938;28;20041;-84
2022/07/09 07:39:10;;;;;;;3.38;1.60;;;18.80;99.90;;;;;;5020140;28;20479;-83
2022/07/09 07:41:36;;;;;;;4.60;1.45;;;18.80;99.90;;;;;;5017870;28;20048;-82
2022/07/09 07:44:01;;;;;;;3.85;1.65;;;18.90;99.90;;;;;;5021307;28;20041;-83
2022/07/09 07:46:27;;;;;;;3.22;1.52;;;19.00;99.90;;;;;;5037383;28;20052;-84
2022/07/09 07:48:52;;;;;;;4.68;1.65;;;19.10;99.90;;;;;;5038902;28;20156;-83
2022/07/09 07:51:18;;;;;;;3.88;1.60;;;19.30;99.90;;;;;;5039301;28;20037;-84
2022/07/09 07:53:44;;;;;;;2.85;1.27;;;19.50;99.90;;;;;;5038561;28;20082;-83
2022/07/09 07:56:09;;;;;;;1.73;0.77;;;20.10;99.90;;;;;;5037906;28;20044;-83
2022/07/09 07:58:35;;;;;;;2.90;1.08;;;20.60;99.90;;;;;;5023345;28;20073;-82
2022/07/09 08:01:02;;;;;;;3.03;0.75;;;20.90;99.90;;;;;;5019788;28;20046;-83
2022/07/09 08:03:27;;;;;;;5.40;1.00;;;20.90;99.90;;;;;;5022925;28;20059;-82
2022/07/09 08:05:53;;;;;;;5.28;0.88;;;20.80;99.90;;;;;;5022942;28;20037;-82
2022/07/09 08:08:18;;;;;;;3.90;0.60;;;20.70;99.90;;;;;;5023729;28;20124;-82
2022/07/09 08:10:45;;;;;;;6.57;1.20;;;20.50;99.90;;;;;;5024416;28;20037;-82
2022/07/09 08:13:12;;;;;;;2.45;0.70;;;20.40;99.90;;;;;;5023944;28;20107;-83
2022/07/09 08:15:38;;;;;;;1.70;0.70;;;20.50;99.90;;;;;;5022998;28;20047;-82
2022/07/09 08:18:03;;;;;;;3.08;0.60;;;20.60;99.90;;;;;;5043891;28;20100;-82
2022/07/09 08:20:29;;;;;;;2.53;1.02;;;20.80;99.90;;;;;;5044146;28;20075;-82
2022/07/09 08:22:54;;;;;;;3.13;0.70;;;20.90;99.90;;;;;;5043741;28;20276;-81
2022/07/09 08:25:20;;;;;;;3.45;0.70;;;21.00;99.90;;;;;;5042843;28;20045;-82
2022/07/09 08:27:46;;;;;;;2.83;1.05;;;21.00;99.90;;;;;;5042136;28;20045;-82
2022/07/09 08:30:11;;;;;;;3.63;0.70;;;21.00;99.90;;;;;;5040907;28;20041;-82
2022/07/09 08:32:38;;;;;;;4.15;0.50;;;21.00;99.90;;;;;;5039885;28;20059;-81
2022/07/09 08:35:04;;;;;;;1.48;0.57;;;20.80;99.90;;;;;;5041732;28;20055;-82
2022/07/09 08:37:30;;;;;;;2.58;0.93;;;20.80;99.90;;;;;;5041199;28;20047;-82
2022/07/09 08:39:56;;;;;;;4.30;0.60;;;21.00;99.90;;;;;;5031484;28;20077;-82
2022/07/09 08:42:21;;;;;;;4.82;0.93;;;21.40;99.90;;;;;;5045861;28;20052;-82
2022/07/09 08:44:47;;;;;;;2.88;0.73;;;21.80;99.90;;;;;;5068376;28;20051;-81
2022/07/09 08:47:15;;;;;;;2.03;0.52;;;22.10;99.90;;;;;;5047278;28;20040;-81
2022/07/09 08:49:41;;;;;;;1.83;0.55;;;22.00;99.90;;;;;;5044365;28;20045;-81
2022/07/09 08:52:07;;;;;;;2.28;0.50;;;21.70;99.90;;;;;;5047571;28;20029;-81
2022/07/09 08:54:37;;;;;;;3.05;0.88;;;21.60;99.90;;;;;;5049882;28;20048;-82
2022/07/09 08:57:04;;;;;;;2.78;0.40;;;21.80;99.90;;;;;;5049439;28;20037;-82
2022/07/09 08:59:30;;;;;;;2.42;0.43;;;21.90;99.90;;;;;;5031330;28;20067;-81
2022/07/09 09:01:55;;;;;;;2.60;0.82;;;22.00;99.90;;;;;;5049469;28;20080;-81
2022/07/09 09:04:21;;;;;;;4.15;1.15;;;21.90;99.90;;;;;;5047192;28;20128;-81
2022/07/09 09:06:47;;;;;;;3.75;0.70;;;22.00;99.90;;;;;;5031862;28;20124;-80
2022/07/09 09:09:18;;;;;;;3.05;0.60;;;21.90;99.90;;;;;;5048357;28;20045;-81
2022/07/09 09:11:50;;;;;;;5.45;0.40;;;21.90;99.90;;;;;;5046685;28;20045;-81
2022/07/09 09:14:21;;;;;;;5.43;0.30;;;22.40;99.90;;;;;;5048667;28;20621;-82
2022/07/09 09:16:47;;;;;;;4.63;0.45;;;23.00;99.90;;;;;;5049219;28;20041;-81
2022/07/09 09:19:13;;;;;;;3.85;0.40;;;23.40;99.90;;;;;;5045137;28;20077;-81
2022/07/09 09:21:38;;;;;;;2.00;0.30;;;23.50;99.90;;;;;;5040405;28;20053;-81
2022/07/09 09:24:04;;;;;;;1.52;0.30;;;23.70;99.90;;;;;;5041767;28;20041;-81
2022/07/09 09:26:30;;;;;;;1.25;0.20;;;23.70;99.90;;;;;;5040949;28;20037;-82
2022/07/09 09:28:59;;;;;;;3.75;0.68;;;23.60;99.90;;;;;;5041217;28;20052;-81
2022/07/09 09:31:28;;;;;;;3.65;0.40;;;23.60;99.90;;;;;;5041257;28;20143;-82
2022/07/09 09:34:04;;;;;;;4.13;0.40;;;23.70;99.90;;;;;;5041055;28;20033;-81
2022/07/09 09:36:35;;;;;;;3.00;1.00;;;23.50;99.90;;;;;;5041853;28;20040;-82
2022/07/09 09:39:22;;;;;;;3.67;0.60;;;23.40;99.90;;;;;;5039754;28;20041;-81
2022/07/09 09:41:50;;;;;;;2.80;0.70;;;23.20;99.90;;;;;;5040218;28;20107;-81
2022/07/09 09:44:24;;;;;;;4.13;0.32;;;23.40;99.90;;;;;;5042312;28;20052;-83
2022/07/09 09:46:49;;;;;;;1.47;0.20;;;23.70;99.90;;;;;;5042733;28;20067;-81
2022/07/09 09:49:16;;;;;;;1.65;0.65;;;23.70;99.90;;;;;;5041888;28;20048;-81
2022/07/09 09:52:02;;;;;;;1.98;0.20;;;23.80;99.90;;;;;;5041645;28;20060;-83
2022/07/09 09:54:28;;;;;;;5.63;0.75;;;24.00;99.90;;;;;;5043007;28;20045;-82
2022/07/09 09:56:54;;;;;;;3.55;0.40;;;24.00;99.90;;;;;;5032044;28;20049;-81
2022/07/09 09:59:20;;;;;;;3.35;0.30;;;23.80;99.90;;;;;;5034847;28;20064;-83
2022/07/09 10:01:46;;;;;;;2.25;0.40;;;23.50;99.90;;;;;;5035361;28;20045;-84
2022/07/09 10:04:14;;;;;;;3.10;0.50;;;23.20;99.90;;;;;;5034068;28;20042;-82
2022/07/09 10:06:41;;;;;;;3.33;0.57;;;22.90;99.90;;;;;;5050643;28;20065;-82
2022/07/09 10:09:08;;;;;;;2.45;0.60;;;22.90;99.90;;;;;;5029955;28;20044;-81
2022/07/09 10:11:41;;;;;;;3.33;0.47;;;23.00;99.90;;;;;;5022414;28;20053;-81
2022/07/09 10:14:08;;;;;;;3.58;0.65;;;23.20;99.90;;;;;;5032978;28;20037;-83
2022/07/09 10:16:38;;;;;;;1.67;0.40;;;23.50;99.90;;;;;;5042135;28;20487;-81
2022/07/09 10:19:04;;;;;;;3.10;0.30;;;23.60;99.90;;;;;;5025947;28;20041;-81
2022/07/09 10:21:41;;;;;;;2.70;0.57;;;23.60;99.90;;;;;;5025199;28;20051;-82
2022/07/09 10:24:09;;;;;;;5.25;0.88;;;23.40;99.90;;;;;;5041369;28;20407;-82
2022/07/09 10:26:43;;;;;;;2.22;0.45;;;23.20;99.90;;;;;;5041908;28;20041;-83
2022/07/09 10:29:26;;;;;;;4.15;0.70;;;23.00;99.90;;;;;;5042744;28;20136;-81
2022/07/09 10:31:53;;;;;;;3.08;0.45;;;23.20;99.90;;;;;;5039368;28;20119;-82
2022/07/09 10:34:25;;;;;;;3.55;0.63;;;23.60;99.90;;;;;;5022723;28;20124;-82
2022/07/09 10:36:58;;;;;;;3.28;0.50;;;24.10;99.90;;;;;;5040241;28;20542;-82
2022/07/09 10:39:23;;;;;;;3.13;0.73;;;24.40;97.80;;;;;;5037041;28;20045;-82
2022/07/09 10:42:06;;;;;;;2.63;0.35;;;24.20;98.40;;;;;;5037669;28;20048;-82
2022/07/09 10:44:40;;;;;;;1.63;0.40;;;24.10;98.20;;;;;;5084872;28;20409;-83
2022/07/09 10:47:06;;;;;;;2.90;0.50;;;24.50;98.90;;;;;;5071345;28;20048;-81
2022/07/09 10:49:36;;;;;;;2.28;0.35;;;25.00;97.70;;;;;;5069616;28;20391;-82
2022/07/09 10:52:04;;;;;;;9.27;4.43;;;25.40;94.40;;;;;;5088499;28;20394;-81
2022/07/09 10:54:30;;;;;;;1.77;0.40;;;25.70;93.30;;;;;;5090003;28;20490;-82
2022/07/09 10:56:56;;;;;;;2.90;0.73;;;25.60;91.10;;;;;;5053084;28;20047;-82
2022/07/09 10:59:23;;;;;;;4.13;0.47;;;25.60;90.10;;;;;;5082904;28;20339;-82
2022/07/09 11:01:50;;;;;;;4.22;0.60;;;25.40;90.20;;;;;;5088118;28;20044;-81
2022/07/09 11:04:27;;;;;;;3.92;1.40;;;25.70;90.10;;;;;;5076558;28;20037;-82
2022/07/09 11:06:53;;;;;;;2.50;0.20;;;25.40;88.90;;;;;;5058001;28;20044;-81
2022/07/09 11:09:19;;;;;;;2.22;0.30;;;25.50;89.90;;;;;;5066687;28;20064;-83
2022/07/09 11:11:46;;;;;;;1.80;0.65;;;25.80;86.80;;;;;;5070525;28;20048;-82
2022/07/09 11:14:12;;;;;;;4.68;0.85;;;25.50;86.10;;;;;;5071346;28;20419;-82
2022/07/09 11:16:38;;;;;;;4.28;0.80;;;25.10;89.60;;;;;;5070503;28;20190;-81
2022/07/09 11:19:18;;;;;;;7.00;0.93;;;24.50;91.30;;;;;;5073586;28;20049;-82
2022/07/09 11:21:45;;;;;;;4.15;0.50;;;24.00;92.70;;;;;;5064669;28;20036;-81
2022/07/09 11:24:22;;;;;;;5.57;0.70;;;23.50;94.50;;;;;;5086854;28;20075;-82
2022/07/09 11:26:48;;;;;;;2.80;0.47;;;22.90;95.50;;;;;;5070726;28;20036;-81
2022/07/09 11:29:16;;;;;;;4.30;0.60;;;22.30;98.80;;;;;;5075977;28;20090;-81
2022/07/09 11:31:50;;;;;;;4.45;0.95;;;22.00;99.90;;;;;;5067726;28;20120;-81
2022/07/09 11:34:16;;;;;;;4.55;0.60;;;22.10;99.90;;;;;;5072539;28;20080;-81
2022/07/09 11:36:47;;;;;;;2.35;0.80;;;22.10;99.90;;;;;;5081555;28;20125;-81
2022/07/09 11:39:33;;;;;;;3.60;0.70;;;22.00;99.90;;;;;;5069715;28;20037;-80
2022/07/09 11:42:00;;;;;;;2.17;0.55;;;21.90;99.90;;;;;;5060731;28;20040;-80
2022/07/09 11:44:33;;;;;;;7.75;1.20;;;22.00;99.90;;;;;;5082024;28;20058;-80
2022/07/09 11:47:09;;;;;;;4.93;0.80;;;22.40;99.90;;;;;;5085632;28;20116;-81
2022/07/09 11:49:44;;;;;;;2.95;0.40;;;22.50;99.90;;;;;;5074626;28;20076;-81
2022/07/09 11:52:25;;;;;;;3.97;0.75;;;22.30;99.90;;;;;;5060473;28;20043;-81
2022/07/09 11:55:08;;;;;;;4.72;0.70;;;22.40;99.90;;;;;;5051702;28;20044;-81
2022/07/09 11:57:36;;;;;;;3.03;0.88;;;22.50;99.90;;;;;;5079187;28;20472;-81
2022/07/09 12:00:04;;;;;;;3.45;0.80;;;22.50;99.90;;;;;;5080561;28;20053;-80
2022/07/09 12:02:34;;;;;;;4.43;1.10;;;22.60;99.90;;;;;;5061651;28;20045;-81
2022/07/09 12:05:03;;;;;;;4.00;1.17;;;22.50;99.90;;;;;;5082004;28;20058;-82
2022/07/09 12:07:29;;;;;;;2.75;0.57;;;22.60;99.90;;;;;;5068020;28;20047;-81
2022/07/09 12:10:07;;;;;;;3.25;0.40;;;22.60;99.90;;;;;;5058130;28;20032;-81
2022/07/09 12:12:34;;;;;;;2.63;0.25;;;22.70;99.90;;;;;;5057660;28;20053;-81
2022/07/09 12:15:01;;;;;;;2.92;0.40;;;23.00;99.90;;;;;;5057499;28;20470;-80
2022/07/09 12:17:29;;;;;;;2.40;0.25;;;23.20;99.70;;;;;;5062732;28;20044;-81
2022/07/09 12:19:56;;;;;;;2.92;0.30;;;23.10;97.60;;;;;;5055751;28;20726;-81
2022/07/09 12:22:23;;;;;;;1.80;0.30;;;23.00;97.30;;;;;;5056883;28;20040;-81
2022/07/09 12:24:49;;;;;;;2.55;0.50;;;23.40;96.10;;;;;;5054009;28;20048;-81
2022/07/09 12:27:15;;;;;;;1.45;0.20;;;23.50;94.20;;;;;;5057099;28;20041;-81
2022/07/09 12:29:41;;;;;;;2.75;0.20;;;23.80;92.90;;;;;;5053783;28;21414;-80
2022/07/09 12:32:07;;;;;;;2.72;0.50;;;24.20;90.20;;;;;;5060514;28;20033;-82
2022/07/09 12:34:32;;;;;;;2.60;0.55;;;24.10;88.70;;;;;;5063259;28;20063;-81
2022/07/09 12:36:58;;;;;;;4.32;0.35;;;24.30;88.50;;;;;;5062976;28;20083;-82
2022/07/09 12:39:24;;;;;;;1.88;0.20;;;24.40;86.10;;;;;;5039398;28;20399;-81
2022/07/09 12:41:49;;;;;;;4.32;0.20;;;24.40;82.90;;;;;;5043904;28;20554;-80
2022/07/09 12:44:15;;;;;;;3.97;0.75;;;24.30;80.60;;;;;;5038064;28;20272;-81
2022/07/09 12:46:41;;;;;;;5.75;0.25;;;24.00;81.40;;;;;;5062493;28;20056;-82
2022/07/09 12:49:07;;;;;;;1.73;0.20;;;23.90;83.10;;;;;;5078486;28;20399;-81
2022/07/09 12:51:33;;;;;;;3.40;0.35;;;24.00;82.50;;;;;;5057919;28;20037;-82
2022/07/09 12:53:58;;;;;;;2.60;0.17;;;24.00;80.40;;;;;;5044936;28;20048;-82
2022/07/09 12:56:24;;;;;;;2.80;0.35;;;24.20;79.60;;;;;;5044218;28;20040;-82
2022/07/09 12:58:50;;;;;;;4.15;0.30;;;24.30;80.20;;;;;;5023648;28;20041;-83
2022/07/09 13:01:15;;;;;;;5.43;0.57;;;24.20;79.80;;;;;;5035475;28;20094;-83
2022/07/09 13:03:41;;;;;;;1.90;0.85;;;23.80;79.50;;;;;;5051142;28;20087;-83
2022/07/09 13:06:30;;;;;;;4.45;0.70;;;23.60;79.70;;;;;;5053629;28;20037;-82
2022/07/09 13:08:53;;;;;;;3.65;0.47;;;23.70;80.10;;;;;;5051665;28;20463;-82
2022/07/09 13:11:18;;;;;;;5.45;0.60;;;24.10;80.50;;;;;;5059346;28;20032;-82
2022/07/09 13:13:44;;;;;;;1.67;0.40;;;24.40;81.50;;;;;;5050691;28;20064;-83
2022/07/09 13:16:09;;;;;;;2.63;0.20;;;24.80;79.30;;;;;;5052334;28;20906;-83
2022/07/09 13:18:35;;;;;;;1.80;0.30;;;25.00;77.20;;;;;;5050666;28;20119;-83
2022/07/09 13:21:00;;;;;;;1.75;0.45;;;24.80;78.10;;;;;;5052772;28;20429;-83
2022/07/09 13:23:26;;;;;;;2.00;0.50;;;24.80;76.90;;;;;;5052635;28;20097;-82
2022/07/09 13:25:51;;;;;;;3.65;0.85;;;24.30;75.70;;;;;;5036710;28;20041;-82
2022/07/09 13:28:17;;;;;;;2.80;1.02;;;23.80;76.30;;;;;;5049533;28;20044;-82
2022/07/09 13:30:42;;;;;;;2.58;0.30;;;23.60;78.20;;;;;;5051297;28;20459;-84
2022/07/09 13:33:08;;;;;;;2.03;0.20;;;23.20;78.00;;;;;;5049680;28;20064;-83
2022/07/09 13:35:34;;;;;;;4.40;0.43;;;22.90;79.10;;;;;;5049656;28;20040;-82
2022/07/09 13:38:00;;;;;;;2.42;0.30;;;22.90;80.50;;;;;;5055009;28;20047;-83
2022/07/09 13:40:25;;;;;;;1.15;0.20;;;22.90;79.40;;;;;;5044139;28;20447;-82
2022/07/09 13:42:51;;;;;;;2.47;0.20;;;23.30;80.10;;;;;;5052757;28;20037;-83
2022/07/09 13:45:17;;;;;;;3.03;0.68;;;23.30;80.20;;;;;;5052285;28;20499;-82
2022/07/09 13:47:42;;;;;;;2.22;0.30;;;23.20;79.30;;;;;;5037434;28;20069;-82
2022/07/09 13:50:08;;;;;;;4.07;0.30;;;23.30;80.10;;;;;;5053764;28;20048;-83
2022/07/09 13:52:34;;;;;;;2.67;0.30;;;23.90;79.00;;;;;;5055502;28;20115;-82
2022/07/09 13:54:59;;;;;;;4.10;0.32;;;24.40;77.40;;;;;;5069003;28;20040;-82
2022/07/09 13:57:25;;;;;;;2.83;0.32;;;24.50;76.10;;;;;;5067619;28;20619;-82
2022/07/09 13:59:50;;;;;;;2.22;0.22;;;24.50;75.30;;;;;;5069789;28;20153;-83
2022/07/09 14:02:16;;;;;;;2.08;0.20;;;24.50;75.20;;;;;;5052952;28;20115;-82
2022/07/09 14:04:42;;;;;;;3.05;0.17;;;24.50;75.60;;;;;;5054300;28;20090;-82
2022/07/09 14:07:07;;;;;;;2.72;0.88;;;24.70;74.60;;;;;;5056493;28;20407;-82
2022/07/09 14:09:33;;;;;;;3.25;0.25;;;24.50;72.10;;;;;;5064845;28;20072;-83
2022/07/09 14:11:59;;;;;;;3.95;0.40;;;24.20;73.30;;;;;;5019670;28;20415;-82
2022/07/09 14:14:24;;;;;;;2.90;0.25;;;24.00;73.80;;;;;;5019590;28;20080;-82
2022/07/09 14:16:50;;;;;;;4.95;0.30;;;24.10;74.20;;;;;;5071140;28;20044;-83
2022/07/09 14:19:16;;;;;;;3.10;0.90;;;24.00;72.10;;;;;;5052002;28;20049;-82